sensor_id;sensor_type;location;lat;lon;timestamp;P1;durP1;ratioP1;P2;durP2;ratioP2
11998;SDS011;40817;51.520;9.954;2024-02-26T00:00:59;10.98;;;5.43;;
11998;SDS011;40817;51.520;9.954;2024-02-26T00:03:28;8.70;;;5.00;;
11998;SDS011;40817;51.520;9.954;2024-02-26T00:05:57;7.68;;;5.22;;
11998;SDS011;40817;51.520;9.954;2024-02-26T00:08:24;7.25;;;4.78;;
11998;SDS011;40817;51.520;9.954;2024-02-26T00:10:52;7.80;;;4.97;;
11998;SDS011;40817;51.520;9.954;2024-02-26T00:13:19;7.18;;;5.05;;
11998;SDS011;40817;51.520;9.954;2024-02-26T00:15:47;8.77;;;5.22;;
11998;SDS011;40817;51.520;9.954;2024-02-26T00:18:14;8.10;;;5.40;;
11998;SDS011;40817;51.520;9.954;2024-02-26T00:20:43;8.73;;;5.45;;
11998;SDS011;40817;51.520;9.954;2024-02-26T00:23:10;9.57;;;5.80;;
11998;SDS011;40817;51.520;9.954;2024-02-26T00:25:37;8.05;;;5.68;;
11998;SDS011;40817;51.520;9.954;2024-02-26T00:28:04;9.35;;;5.35;;
11998;SDS011;40817;51.520;9.954;2024-02-26T00:30:32;8.15;;;5.03;;
11998;SDS011;40817;51.520;9.954;2024-02-26T00:32:59;8.05;;;6.45;;
11998;SDS011;40817;51.520;9.954;2024-02-26T00:35:26;9.65;;;5.28;;
11998;SDS011;40817;51.520;9.954;2024-02-26T00:37:55;8.63;;;5.15;;
11998;SDS011;40817;51.520;9.954;2024-02-26T00:40:23;9.23;;;5.60;;
11998;SDS011;40817;51.520;9.954;2024-02-26T00:42:51;10.23;;;5.13;;
11998;SDS011;40817;51.520;9.954;2024-02-26T00:45:18;7.82;;;5.20;;
11998;SDS011;40817;51.520;9.954;2024-02-26T00:47:46;7.50;;;5.18;;
11998;SDS011;40817;51.520;9.954;2024-02-26T00:50:14;7.80;;;5.30;;
11998;SDS011;40817;51.520;9.954;2024-02-26T00:52:41;11.13;;;5.78;;
11998;SDS011;40817;51.520;9.954;2024-02-26T00:55:10;8.05;;;5.50;;
11998;SDS011;40817;51.520;9.954;2024-02-26T00:57:37;8.60;;;5.45;;
11998;SDS011;40817;51.520;9.954;2024-02-26T01:00:06;7.95;;;5.35;;
11998;SDS011;40817;51.520;9.954;2024-02-26T01:02:35;7.68;;;5.30;;
11998;SDS011;40817;51.520;9.954;2024-02-26T01:05:03;7.95;;;4.90;;
11998;SDS011;40817;51.520;9.954;2024-02-26T01:07:32;9.65;;;6.43;;
11998;SDS011;40817;51.520;9.954;2024-02-26T01:10:01;7.78;;;5.38;;
11998;SDS011;40817;51.520;9.954;2024-02-26T01:12:29;9.65;;;5.80;;
11998;SDS011;40817;51.520;9.954;2024-02-26T01:14:57;7.13;;;4.75;;
11998;SDS011;40817;51.520;9.954;2024-02-26T01:17:26;9.05;;;5.28;;
11998;SDS011;40817;51.520;9.954;2024-02-26T01:19:53;7.95;;;4.75;;
11998;SDS011;40817;51.520;9.954;2024-02-26T01:22:21;8.40;;;5.05;;
11998;SDS011;40817;51.520;9.954;2024-02-26T01:24:48;9.02;;;5.45;;
11998;SDS011;40817;51.520;9.954;2024-02-26T01:27:16;8.38;;;5.10;;
11998;SDS011;40817;51.520;9.954;2024-02-26T01:29:45;11.35;;;5.75;;
11998;SDS011;40817;51.520;9.954;2024-02-26T01:32:12;10.07;;;5.85;;
11998;SDS011;40817;51.520;9.954;2024-02-26T01:34:39;9.10;;;5.43;;
11998;SDS011;40817;51.520;9.954;2024-02-26T01:37:07;8.48;;;5.90;;
11998;SDS011;40817;51.520;9.954;2024-02-26T01:39:34;9.88;;;5.68;;
11998;SDS011;40817;51.520;9.954;2024-02-26T01:42:01;8.13;;;5.03;;
11998;SDS011;40817;51.520;9.954;2024-02-26T01:44:29;9.15;;;4.85;;
11998;SDS011;40817;51.520;9.954;2024-02-26T01:46:58;9.70;;;6.53;;
11998;SDS011;40817;51.520;9.954;2024-02-26T01:49:26;8.93;;;5.47;;
11998;SDS011;40817;51.520;9.954;2024-02-26T01:51:55;8.85;;;5.65;;
11998;SDS011;40817;51.520;9.954;2024-02-26T01:54:23;8.80;;;5.03;;
11998;SDS011;40817;51.520;9.954;2024-02-26T01:56:51;11.32;;;6.07;;
11998;SDS011;40817;51.520;9.954;2024-02-26T01:59:18;8.43;;;5.63;;
11998;SDS011;40817;51.520;9.954;2024-02-26T02:01:47;11.40;;;5.82;;
11998;SDS011;40817;51.520;9.954;2024-02-26T02:04:22;9.80;;;5.97;;
11998;SDS011;40817;51.520;9.954;2024-02-26T02:06:50;10.35;;;6.43;;
11998;SDS011;40817;51.520;9.954;2024-02-26T02:09:18;10.23;;;5.85;;
11998;SDS011;40817;51.520;9.954;2024-02-26T02:11:45;10.25;;;6.20;;
11998;SDS011;40817;51.520;9.954;2024-02-26T02:14:14;11.02;;;6.10;;
11998;SDS011;40817;51.520;9.954;2024-02-26T02:16:41;8.48;;;5.68;;
11998;SDS011;40817;51.520;9.954;2024-02-26T02:19:09;12.88;;;6.10;;
11998;SDS011;40817;51.520;9.954;2024-02-26T02:21:37;9.38;;;5.88;;
11998;SDS011;40817;51.520;9.954;2024-02-26T02:24:05;8.88;;;5.47;;
11998;SDS011;40817;51.520;9.954;2024-02-26T02:26:32;10.75;;;6.05;;
11998;SDS011;40817;51.520;9.954;2024-02-26T02:28:59;9.43;;;6.15;;
11998;SDS011;40817;51.520;9.954;2024-02-26T02:31:27;9.77;;;6.20;;
11998;SDS011;40817;51.520;9.954;2024-02-26T02:33:55;10.52;;;6.18;;
11998;SDS011;40817;51.520;9.954;2024-02-26T02:36:22;10.50;;;5.78;;
11998;SDS011;40817;51.520;9.954;2024-02-26T02:38:51;8.98;;;5.30;;
11998;SDS011;40817;51.520;9.954;2024-02-26T02:41:18;11.95;;;6.50;;
11998;SDS011;40817;51.520;9.954;2024-02-26T02:43:46;10.23;;;5.78;;
11998;SDS011;40817;51.520;9.954;2024-02-26T02:46:14;9.20;;;5.03;;
11998;SDS011;40817;51.520;9.954;2024-02-26T02:48:41;7.35;;;5.25;;
11998;SDS011;40817;51.520;9.954;2024-02-26T02:51:09;8.50;;;5.15;;
11998;SDS011;40817;51.520;9.954;2024-02-26T02:53:36;8.10;;;5.10;;
11998;SDS011;40817;51.520;9.954;2024-02-26T02:56:05;9.85;;;6.28;;
11998;SDS011;40817;51.520;9.954;2024-02-26T02:58:33;9.20;;;5.80;;
11998;SDS011;40817;51.520;9.954;2024-02-26T03:01:00;10.48;;;5.60;;
11998;SDS011;40817;51.520;9.954;2024-02-26T03:03:27;11.60;;;6.13;;
11998;SDS011;40817;51.520;9.954;2024-02-26T03:05:54;11.25;;;6.60;;
11998;SDS011;40817;51.520;9.954;2024-02-26T03:08:22;8.95;;;5.53;;
11998;SDS011;40817;51.520;9.954;2024-02-26T03:10:50;8.95;;;5.78;;
11998;SDS011;40817;51.520;9.954;2024-02-26T03:13:19;11.02;;;6.05;;
11998;SDS011;40817;51.520;9.954;2024-02-26T03:15:47;10.40;;;5.93;;
11998;SDS011;40817;51.520;9.954;2024-02-26T03:18:14;12.23;;;6.05;;
11998;SDS011;40817;51.520;9.954;2024-02-26T03:20:41;8.20;;;5.03;;
11998;SDS011;40817;51.520;9.954;2024-02-26T03:23:09;11.15;;;5.43;;
11998;SDS011;40817;51.520;9.954;2024-02-26T03:25:37;9.63;;;5.50;;
11998;SDS011;40817;51.520;9.954;2024-02-26T03:28:05;8.13;;;5.43;;
11998;SDS011;40817;51.520;9.954;2024-02-26T03:30:34;9.85;;;6.10;;
11998;SDS011;40817;51.520;9.954;2024-02-26T03:33:01;8.93;;;5.10;;
11998;SDS011;40817;51.520;9.954;2024-02-26T03:35:28;8.52;;;5.25;;
11998;SDS011;40817;51.520;9.954;2024-02-26T03:37:56;10.80;;;5.38;;
11998;SDS011;40817;51.520;9.954;2024-02-26T03:40:23;9.23;;;5.80;;
11998;SDS011;40817;51.520;9.954;2024-02-26T03:42:50;9.65;;;5.63;;
11998;SDS011;40817;51.520;9.954;2024-02-26T03:45:19;10.18;;;5.75;;
11998;SDS011;40817;51.520;9.954;2024-02-26T03:47:52;10.73;;;6.00;;
11998;SDS011;40817;51.520;9.954;2024-02-26T03:50:19;8.75;;;5.13;;
11998;SDS011;40817;51.520;9.954;2024-02-26T03:52:46;11.18;;;6.03;;
11998;SDS011;40817;51.520;9.954;2024-02-26T03:55:14;10.52;;;5.88;;
11998;SDS011;40817;51.520;9.954;2024-02-26T03:57:43;10.73;;;5.50;;
11998;SDS011;40817;51.520;9.954;2024-02-26T04:00:11;8.82;;;5.55;;
11998;SDS011;40817;51.520;9.954;2024-02-26T04:02:40;9.35;;;5.63;;
11998;SDS011;40817;51.520;9.954;2024-02-26T04:05:10;9.18;;;5.90;;
11998;SDS011;40817;51.520;9.954;2024-02-26T04:07:38;7.18;;;5.07;;
11998;SDS011;40817;51.520;9.954;2024-02-26T04:10:08;7.57;;;5.10;;
11998;SDS011;40817;51.520;9.954;2024-02-26T04:12:37;8.45;;;5.50;;
11998;SDS011;40817;51.520;9.954;2024-02-26T04:15:06;7.50;;;4.78;;
11998;SDS011;40817;51.520;9.954;2024-02-26T04:17:35;6.15;;;4.93;;
11998;SDS011;40817;51.520;9.954;2024-02-26T04:20:04;8.57;;;5.60;;
11998;SDS011;40817;51.520;9.954;2024-02-26T04:22:36;8.32;;;5.00;;
11998;SDS011;40817;51.520;9.954;2024-02-26T04:25:03;9.63;;;5.38;;
11998;SDS011;40817;51.520;9.954;2024-02-26T04:27:31;9.32;;;5.38;;
11998;SDS011;40817;51.520;9.954;2024-02-26T04:29:59;7.90;;;4.20;;
11998;SDS011;40817;51.520;9.954;2024-02-26T04:32:26;10.40;;;5.47;;
11998;SDS011;40817;51.520;9.954;2024-02-26T04:34:53;7.47;;;5.15;;
11998;SDS011;40817;51.520;9.954;2024-02-26T04:37:21;8.27;;;5.75;;
11998;SDS011;40817;51.520;9.954;2024-02-26T04:39:49;8.23;;;5.10;;
11998;SDS011;40817;51.520;9.954;2024-02-26T04:42:16;7.68;;;4.97;;
11998;SDS011;40817;51.520;9.954;2024-02-26T04:44:44;9.00;;;5.20;;
11998;SDS011;40817;51.520;9.954;2024-02-26T04:47:11;7.60;;;5.20;;
11998;SDS011;40817;51.520;9.954;2024-02-26T04:49:39;7.22;;;4.68;;
11998;SDS011;40817;51.520;9.954;2024-02-26T04:52:06;7.30;;;4.90;;
11998;SDS011;40817;51.520;9.954;2024-02-26T04:54:33;8.85;;;4.75;;
11998;SDS011;40817;51.520;9.954;2024-02-26T04:57:02;7.60;;;4.15;;
11998;SDS011;40817;51.520;9.954;2024-02-26T04:59:30;7.00;;;4.60;;
11998;SDS011;40817;51.520;9.954;2024-02-26T05:01:57;8.48;;;5.78;;
11998;SDS011;40817;51.520;9.954;2024-02-26T05:04:25;8.98;;;5.57;;
11998;SDS011;40817;51.520;9.954;2024-02-26T05:06:52;9.07;;;5.45;;
11998;SDS011;40817;51.520;9.954;2024-02-26T05:09:19;8.50;;;4.97;;
11998;SDS011;40817;51.520;9.954;2024-02-26T05:11:47;7.28;;;4.65;;
11998;SDS011;40817;51.520;9.954;2024-02-26T05:14:15;8.10;;;5.18;;
11998;SDS011;40817;51.520;9.954;2024-02-26T05:16:42;7.35;;;4.45;;
11998;SDS011;40817;51.520;9.954;2024-02-26T05:19:10;10.38;;;5.82;;
11998;SDS011;40817;51.520;9.954;2024-02-26T05:21:37;9.07;;;5.30;;
11998;SDS011;40817;51.520;9.954;2024-02-26T05:24:05;8.52;;;5.45;;
11998;SDS011;40817;51.520;9.954;2024-02-26T05:26:33;9.43;;;5.90;;
11998;SDS011;40817;51.520;9.954;2024-02-26T05:29:03;7.35;;;4.70;;
11998;SDS011;40817;51.520;9.954;2024-02-26T05:31:31;9.70;;;5.55;;
11998;SDS011;40817;51.520;9.954;2024-02-26T05:33:58;10.15;;;6.13;;
11998;SDS011;40817;51.520;9.954;2024-02-26T05:36:26;8.77;;;5.38;;
11998;SDS011;40817;51.520;9.954;2024-02-26T05:38:58;13.70;;;6.97;;
11998;SDS011;40817;51.520;9.954;2024-02-26T05:41:26;9.05;;;5.45;;
11998;SDS011;40817;51.520;9.954;2024-02-26T05:43:53;8.57;;;5.75;;
11998;SDS011;40817;51.520;9.954;2024-02-26T05:46:20;10.05;;;5.55;;
11998;SDS011;40817;51.520;9.954;2024-02-26T05:48:50;17.15;;;6.63;;
11998;SDS011;40817;51.520;9.954;2024-02-26T05:51:19;9.73;;;6.28;;
11998;SDS011;40817;51.520;9.954;2024-02-26T05:53:46;10.18;;;5.72;;
11998;SDS011;40817;51.520;9.954;2024-02-26T05:56:18;10.27;;;5.57;;
11998;SDS011;40817;51.520;9.954;2024-02-26T05:58:47;9.20;;;5.65;;
11998;SDS011;40817;51.520;9.954;2024-02-26T06:01:15;8.23;;;4.97;;
11998;SDS011;40817;51.520;9.954;2024-02-26T06:03:43;7.95;;;4.60;;
11998;SDS011;40817;51.520;9.954;2024-02-26T06:06:11;9.82;;;5.20;;
11998;SDS011;40817;51.520;9.954;2024-02-26T06:08:40;7.90;;;5.65;;
11998;SDS011;40817;51.520;9.954;2024-02-26T06:11:07;8.38;;;5.80;;
11998;SDS011;40817;51.520;9.954;2024-02-26T06:13:35;7.13;;;4.60;;
11998;SDS011;40817;51.520;9.954;2024-02-26T06:16:02;8.23;;;5.57;;
11998;SDS011;40817;51.520;9.954;2024-02-26T06:18:30;8.20;;;5.13;;
11998;SDS011;40817;51.520;9.954;2024-02-26T06:20:58;11.32;;;5.60;;
11998;SDS011;40817;51.520;9.954;2024-02-26T06:23:26;8.85;;;5.72;;
11998;SDS011;40817;51.520;9.954;2024-02-26T06:25:54;7.55;;;5.38;;
11998;SDS011;40817;51.520;9.954;2024-02-26T06:28:21;9.30;;;5.60;;
11998;SDS011;40817;51.520;9.954;2024-02-26T06:30:48;10.90;;;5.70;;
11998;SDS011;40817;51.520;9.954;2024-02-26T06:33:17;9.05;;;5.85;;
11998;SDS011;40817;51.520;9.954;2024-02-26T06:35:44;11.07;;;6.88;;
11998;SDS011;40817;51.520;9.954;2024-02-26T06:38:12;19.70;;;10.20;;
11998;SDS011;40817;51.520;9.954;2024-02-26T06:40:41;20.88;;;11.25;;
11998;SDS011;40817;51.520;9.954;2024-02-26T06:43:08;24.77;;;13.57;;
11998;SDS011;40817;51.520;9.954;2024-02-26T06:45:35;21.02;;;11.73;;
11998;SDS011;40817;51.520;9.954;2024-02-26T06:48:03;20.58;;;11.43;;
11998;SDS011;40817;51.520;9.954;2024-02-26T06:50:31;16.02;;;9.93;;
11998;SDS011;40817;51.520;9.954;2024-02-26T06:52:58;7.82;;;4.55;;
11998;SDS011;40817;51.520;9.954;2024-02-26T06:55:25;8.88;;;5.75;;
11998;SDS011;40817;51.520;9.954;2024-02-26T06:57:54;8.13;;;5.63;;
11998;SDS011;40817;51.520;9.954;2024-02-26T07:00:21;11.30;;;6.53;;
11998;SDS011;40817;51.520;9.954;2024-02-26T07:02:49;10.20;;;6.50;;
11998;SDS011;40817;51.520;9.954;2024-02-26T07:05:16;9.55;;;6.47;;
11998;SDS011;40817;51.520;9.954;2024-02-26T07:07:43;11.40;;;6.72;;
11998;SDS011;40817;51.520;9.954;2024-02-26T07:10:10;11.13;;;6.95;;
11998;SDS011;40817;51.520;9.954;2024-02-26T07:12:38;15.07;;;7.90;;
11998;SDS011;40817;51.520;9.954;2024-02-26T07:15:07;16.67;;;7.95;;
11998;SDS011;40817;51.520;9.954;2024-02-26T07:17:36;15.27;;;7.60;;
11998;SDS011;40817;51.520;9.954;2024-02-26T07:20:07;13.25;;;7.75;;
11998;SDS011;40817;51.520;9.954;2024-02-26T07:22:36;15.50;;;7.70;;
11998;SDS011;40817;51.520;9.954;2024-02-26T07:25:03;14.18;;;7.72;;
11998;SDS011;40817;51.520;9.954;2024-02-26T07:27:33;12.75;;;7.57;;
11998;SDS011;40817;51.520;9.954;2024-02-26T07:30:00;14.38;;;8.55;;
11998;SDS011;40817;51.520;9.954;2024-02-26T07:32:29;12.57;;;7.60;;
11998;SDS011;40817;51.520;9.954;2024-02-26T07:34:56;19.27;;;8.48;;
11998;SDS011;40817;51.520;9.954;2024-02-26T07:37:23;15.10;;;8.43;;
11998;SDS011;40817;51.520;9.954;2024-02-26T07:39:50;13.88;;;7.88;;
11998;SDS011;40817;51.520;9.954;2024-02-26T07:42:18;15.55;;;8.98;;
11998;SDS011;40817;51.520;9.954;2024-02-26T07:44:45;19.55;;;10.15;;
11998;SDS011;40817;51.520;9.954;2024-02-26T07:47:13;13.93;;;9.25;;
11998;SDS011;40817;51.520;9.954;2024-02-26T07:49:41;13.00;;;7.82;;
11998;SDS011;40817;51.520;9.954;2024-02-26T07:52:09;16.52;;;8.50;;
11998;SDS011;40817;51.520;9.954;2024-02-26T07:54:36;13.40;;;8.32;;
11998;SDS011;40817;51.520;9.954;2024-02-26T07:57:03;12.43;;;7.50;;
11998;SDS011;40817;51.520;9.954;2024-02-26T07:59:31;11.35;;;6.78;;
11998;SDS011;40817;51.520;9.954;2024-02-26T08:01:59;11.18;;;6.60;;
11998;SDS011;40817;51.520;9.954;2024-02-26T08:04:28;12.68;;;6.38;;
11998;SDS011;40817;51.520;9.954;2024-02-26T08:06:57;10.23;;;5.72;;
11998;SDS011;40817;51.520;9.954;2024-02-26T08:09:24;10.60;;;5.32;;
11998;SDS011;40817;51.520;9.954;2024-02-26T08:11:51;9.13;;;5.45;;
11998;SDS011;40817;51.520;9.954;2024-02-26T08:14:18;13.50;;;6.35;;
11998;SDS011;40817;51.520;9.954;2024-02-26T08:16:47;10.02;;;6.00;;
11998;SDS011;40817;51.520;9.954;2024-02-26T08:19:15;7.35;;;4.38;;
11998;SDS011;40817;51.520;9.954;2024-02-26T08:21:42;7.38;;;4.38;;
11998;SDS011;40817;51.520;9.954;2024-02-26T08:24:11;6.65;;;4.10;;
11998;SDS011;40817;51.520;9.954;2024-02-26T08:26:38;6.85;;;4.00;;
11998;SDS011;40817;51.520;9.954;2024-02-26T08:29:05;7.38;;;4.20;;
11998;SDS011;40817;51.520;9.954;2024-02-26T08:31:33;6.15;;;3.85;;
11998;SDS011;40817;51.520;9.954;2024-02-26T08:34:02;7.93;;;4.10;;
11998;SDS011;40817;51.520;9.954;2024-02-26T08:36:30;6.63;;;4.03;;
11998;SDS011;40817;51.520;9.954;2024-02-26T08:39:00;7.60;;;4.15;;
11998;SDS011;40817;51.520;9.954;2024-02-26T08:41:29;9.10;;;4.03;;
11998;SDS011;40817;51.520;9.954;2024-02-26T08:43:56;6.45;;;4.15;;
11998;SDS011;40817;51.520;9.954;2024-02-26T08:46:24;7.15;;;4.13;;
11998;SDS011;40817;51.520;9.954;2024-02-26T08:48:51;7.47;;;4.32;;
11998;SDS011;40817;51.520;9.954;2024-02-26T08:51:18;7.78;;;4.05;;
11998;SDS011;40817;51.520;9.954;2024-02-26T08:53:45;7.22;;;4.00;;
11998;SDS011;40817;51.520;9.954;2024-02-26T08:56:13;6.78;;;4.25;;
11998;SDS011;40817;51.520;9.954;2024-02-26T08:58:44;7.97;;;4.05;;
11998;SDS011;40817;51.520;9.954;2024-02-26T09:01:13;8.23;;;5.43;;
11998;SDS011;40817;51.520;9.954;2024-02-26T09:03:41;10.00;;;5.95;;
11998;SDS011;40817;51.520;9.954;2024-02-26T09:06:08;9.98;;;5.97;;
11998;SDS011;40817;51.520;9.954;2024-02-26T09:08:36;11.88;;;6.88;;
11998;SDS011;40817;51.520;9.954;2024-02-26T09:11:04;11.30;;;6.53;;
11998;SDS011;40817;51.520;9.954;2024-02-26T09:13:31;11.90;;;7.40;;
11998;SDS011;40817;51.520;9.954;2024-02-26T09:16:00;14.05;;;7.78;;
11998;SDS011;40817;51.520;9.954;2024-02-26T09:18:27;10.80;;;6.82;;
11998;SDS011;40817;51.520;9.954;2024-02-26T09:20:55;10.73;;;6.93;;
11998;SDS011;40817;51.520;9.954;2024-02-26T09:23:22;11.35;;;7.45;;
11998;SDS011;40817;51.520;9.954;2024-02-26T09:25:49;11.45;;;6.68;;
11998;SDS011;40817;51.520;9.954;2024-02-26T09:28:19;11.57;;;7.13;;
11998;SDS011;40817;51.520;9.954;2024-02-26T09:30:46;13.57;;;7.38;;
11998;SDS011;40817;51.520;9.954;2024-02-26T09:33:15;11.27;;;7.20;;
11998;SDS011;40817;51.520;9.954;2024-02-26T09:35:42;13.18;;;7.65;;
11998;SDS011;40817;51.520;9.954;2024-02-26T09:38:10;12.13;;;7.55;;
11998;SDS011;40817;51.520;9.954;2024-02-26T09:40:37;11.73;;;7.10;;
11998;SDS011;40817;51.520;9.954;2024-02-26T09:43:06;12.63;;;7.32;;
11998;SDS011;40817;51.520;9.954;2024-02-26T09:45:40;13.15;;;7.20;;
11998;SDS011;40817;51.520;9.954;2024-02-26T09:48:08;14.23;;;7.05;;
11998;SDS011;40817;51.520;9.954;2024-02-26T09:50:39;10.10;;;7.43;;
11998;SDS011;40817;51.520;9.954;2024-02-26T09:53:08;12.13;;;7.43;;
11998;SDS011;40817;51.520;9.954;2024-02-26T09:55:39;12.85;;;7.25;;
11998;SDS011;40817;51.520;9.954;2024-02-26T09:58:08;12.93;;;7.60;;
11998;SDS011;40817;51.520;9.954;2024-02-26T10:00:39;12.07;;;6.85;;
11998;SDS011;40817;51.520;9.954;2024-02-26T10:03:09;11.43;;;7.75;;
11998;SDS011;40817;51.520;9.954;2024-02-26T10:05:43;11.63;;;7.35;;
11998;SDS011;40817;51.520;9.954;2024-02-26T10:08:11;14.25;;;7.10;;
11998;SDS011;40817;51.520;9.954;2024-02-26T10:10:40;12.93;;;7.43;;
11998;SDS011;40817;51.520;9.954;2024-02-26T10:13:08;10.23;;;7.15;;
11998;SDS011;40817;51.520;9.954;2024-02-26T10:15:37;10.82;;;6.90;;
11998;SDS011;40817;51.520;9.954;2024-02-26T10:18:04;11.98;;;7.10;;
11998;SDS011;40817;51.520;9.954;2024-02-26T10:20:32;11.43;;;7.70;;
11998;SDS011;40817;51.520;9.954;2024-02-26T10:23:03;13.10;;;7.20;;
11998;SDS011;40817;51.520;9.954;2024-02-26T10:25:31;10.50;;;7.00;;
11998;SDS011;40817;51.520;9.954;2024-02-26T10:27:59;10.45;;;7.03;;
11998;SDS011;40817;51.520;9.954;2024-02-26T10:30:28;10.07;;;6.45;;
11998;SDS011;40817;51.520;9.954;2024-02-26T10:32:55;10.52;;;7.10;;
11998;SDS011;40817;51.520;9.954;2024-02-26T10:35:23;13.10;;;6.63;;
11998;SDS011;40817;51.520;9.954;2024-02-26T10:37:51;10.27;;;6.88;;
11998;SDS011;40817;51.520;9.954;2024-02-26T10:40:20;12.45;;;6.80;;
11998;SDS011;40817;51.520;9.954;2024-02-26T10:42:47;10.95;;;7.15;;
11998;SDS011;40817;51.520;9.954;2024-02-26T10:45:15;10.63;;;6.47;;
11998;SDS011;40817;51.520;9.954;2024-02-26T10:47:43;10.25;;;6.55;;
11998;SDS011;40817;51.520;9.954;2024-02-26T10:50:10;11.23;;;6.43;;
11998;SDS011;40817;51.520;9.954;2024-02-26T10:52:42;9.93;;;6.22;;
11998;SDS011;40817;51.520;9.954;2024-02-26T10:55:11;9.35;;;6.63;;
11998;SDS011;40817;51.520;9.954;2024-02-26T10:57:45;9.68;;;6.45;;
11998;SDS011;40817;51.520;9.954;2024-02-26T11:00:14;10.10;;;6.55;;
11998;SDS011;40817;51.520;9.954;2024-02-26T11:02:42;13.10;;;6.90;;
11998;SDS011;40817;51.520;9.954;2024-02-26T11:05:12;9.48;;;6.43;;
11998;SDS011;40817;51.520;9.954;2024-02-26T11:07:40;9.32;;;6.78;;
11998;SDS011;40817;51.520;9.954;2024-02-26T11:10:09;12.38;;;6.57;;
11998;SDS011;40817;51.520;9.954;2024-02-26T11:12:39;12.13;;;7.05;;
11998;SDS011;40817;51.520;9.954;2024-02-26T11:15:09;11.10;;;6.55;;
11998;SDS011;40817;51.520;9.954;2024-02-26T11:17:36;11.73;;;6.65;;
11998;SDS011;40817;51.520;9.954;2024-02-26T11:20:09;8.70;;;5.50;;
11998;SDS011;40817;51.520;9.954;2024-02-26T11:22:38;11.30;;;6.32;;
11998;SDS011;40817;51.520;9.954;2024-02-26T11:25:06;11.52;;;6.05;;
11998;SDS011;40817;51.520;9.954;2024-02-26T11:27:37;10.65;;;5.53;;
11998;SDS011;40817;51.520;9.954;2024-02-26T11:30:15;9.93;;;5.90;;
11998;SDS011;40817;51.520;9.954;2024-02-26T11:32:44;9.80;;;6.00;;
11998;SDS011;40817;51.520;9.954;2024-02-26T11:35:12;8.20;;;5.57;;
11998;SDS011;40817;51.520;9.954;2024-02-26T11:37:50;9.90;;;6.10;;
11998;SDS011;40817;51.520;9.954;2024-02-26T11:40:21;9.27;;;5.95;;
11998;SDS011;40817;51.520;9.954;2024-02-26T11:42:50;8.90;;;5.43;;
11998;SDS011;40817;51.520;9.954;2024-02-26T11:48:24;7.35;;;5.10;;
11998;SDS011;40817;51.520;9.954;2024-02-26T11:50:55;8.88;;;5.32;;
11998;SDS011;40817;51.520;9.954;2024-02-26T11:53:24;9.18;;;5.22;;
11998;SDS011;40817;51.520;9.954;2024-02-26T11:58:58;9.23;;;5.55;;
11998;SDS011;40817;51.520;9.954;2024-02-26T12:01:42;8.03;;;5.30;;
11998;SDS011;40817;51.520;9.954;2024-02-26T12:04:13;8.52;;;4.88;;
11998;SDS011;40817;51.520;9.954;2024-02-26T12:06:46;10.25;;;5.93;;
11998;SDS011;40817;51.520;9.954;2024-02-26T12:09:31;6.82;;;4.90;;
11998;SDS011;40817;51.520;9.954;2024-02-26T12:12:03;10.50;;;4.90;;
11998;SDS011;40817;51.520;9.954;2024-02-26T12:14:33;8.25;;;5.22;;
11998;SDS011;40817;51.520;9.954;2024-02-26T12:17:04;7.72;;;4.95;;
11998;SDS011;40817;51.520;9.954;2024-02-26T12:19:34;8.23;;;5.15;;
11998;SDS011;40817;51.520;9.954;2024-02-26T12:22:02;8.60;;;5.00;;
11998;SDS011;40817;51.520;9.954;2024-02-26T12:24:30;8.65;;;5.05;;
11998;SDS011;40817;51.520;9.954;2024-02-26T12:26:57;10.30;;;5.22;;
11998;SDS011;40817;51.520;9.954;2024-02-26T12:29:24;8.23;;;5.22;;
11998;SDS011;40817;51.520;9.954;2024-02-26T12:31:51;8.02;;;4.95;;
11998;SDS011;40817;51.520;9.954;2024-02-26T12:34:20;7.20;;;4.47;;
11998;SDS011;40817;51.520;9.954;2024-02-26T12:36:47;10.30;;;4.78;;
11998;SDS011;40817;51.520;9.954;2024-02-26T12:39:15;8.05;;;4.78;;
11998;SDS011;40817;51.520;9.954;2024-02-26T12:41:42;8.05;;;4.88;;
11998;SDS011;40817;51.520;9.954;2024-02-26T12:44:14;7.60;;;4.45;;
11998;SDS011;40817;51.520;9.954;2024-02-26T12:46:42;7.13;;;4.35;;
11998;SDS011;40817;51.520;9.954;2024-02-26T12:49:09;8.77;;;4.95;;
11998;SDS011;40817;51.520;9.954;2024-02-26T12:51:44;8.48;;;4.43;;
11998;SDS011;40817;51.520;9.954;2024-02-26T12:54:12;7.57;;;4.80;;
11998;SDS011;40817;51.520;9.954;2024-02-26T12:56:40;5.68;;;4.30;;
11998;SDS011;40817;51.520;9.954;2024-02-26T12:59:07;8.20;;;4.65;;
11998;SDS011;40817;51.520;9.954;2024-02-26T13:01:35;7.53;;;4.55;;
11998;SDS011;40817;51.520;9.954;2024-02-26T13:04:03;10.75;;;4.82;;
11998;SDS011;40817;51.520;9.954;2024-02-26T13:06:31;9.32;;;4.63;;
11998;SDS011;40817;51.520;9.954;2024-02-26T13:09:01;7.65;;;4.35;;
11998;SDS011;40817;51.520;9.954;2024-02-26T13:11:29;9.98;;;5.03;;
11998;SDS011;40817;51.520;9.954;2024-02-26T13:13:57;9.35;;;4.93;;
11998;SDS011;40817;51.520;9.954;2024-02-26T13:16:24;11.63;;;5.22;;
11998;SDS011;40817;51.520;9.954;2024-02-26T13:18:52;8.38;;;5.15;;
11998;SDS011;40817;51.520;9.954;2024-02-26T13:21:20;6.28;;;4.32;;
11998;SDS011;40817;51.520;9.954;2024-02-26T13:23:51;7.75;;;4.70;;
11998;SDS011;40817;51.520;9.954;2024-02-26T13:26:22;9.60;;;5.28;;
11998;SDS011;40817;51.520;9.954;2024-02-26T13:28:59;6.82;;;4.72;;
11998;SDS011;40817;51.520;9.954;2024-02-26T13:31:28;7.55;;;5.25;;
11998;SDS011;40817;51.520;9.954;2024-02-26T13:33:55;9.18;;;4.55;;
11998;SDS011;40817;51.520;9.954;2024-02-26T13:36:24;8.43;;;4.60;;
11998;SDS011;40817;51.520;9.954;2024-02-26T13:38:52;10.90;;;5.03;;
11998;SDS011;40817;51.520;9.954;2024-02-26T13:41:22;8.70;;;4.80;;
11998;SDS011;40817;51.520;9.954;2024-02-26T13:46:17;8.25;;;4.70;;
11998;SDS011;40817;51.520;9.954;2024-02-26T13:48:44;7.75;;;4.80;;
11998;SDS011;40817;51.520;9.954;2024-02-26T13:51:11;6.38;;;4.20;;
11998;SDS011;40817;51.520;9.954;2024-02-26T13:53:39;6.85;;;4.00;;
11998;SDS011;40817;51.520;9.954;2024-02-26T13:56:06;9.30;;;4.18;;
11998;SDS011;40817;51.520;9.954;2024-02-26T13:58:35;7.93;;;4.70;;
11998;SDS011;40817;51.520;9.954;2024-02-26T14:01:03;8.73;;;4.63;;
11998;SDS011;40817;51.520;9.954;2024-02-26T14:03:30;9.15;;;4.40;;
11998;SDS011;40817;51.520;9.954;2024-02-26T14:05:58;7.82;;;4.70;;
11998;SDS011;40817;51.520;9.954;2024-02-26T14:08:25;6.50;;;4.38;;
11998;SDS011;40817;51.520;9.954;2024-02-26T14:10:52;8.02;;;4.50;;
11998;SDS011;40817;51.520;9.954;2024-02-26T14:13:20;8.15;;;4.32;;
11998;SDS011;40817;51.520;9.954;2024-02-26T14:15:48;9.23;;;3.95;;
11998;SDS011;40817;51.520;9.954;2024-02-26T14:18:15;6.97;;;4.80;;
11998;SDS011;40817;51.520;9.954;2024-02-26T14:20:43;7.28;;;4.85;;
11998;SDS011;40817;51.520;9.954;2024-02-26T14:23:10;9.07;;;4.65;;
11998;SDS011;40817;51.520;9.954;2024-02-26T14:25:37;9.63;;;4.85;;
11998;SDS011;40817;51.520;9.954;2024-02-26T14:28:05;7.85;;;4.10;;
11998;SDS011;40817;51.520;9.954;2024-02-26T14:30:32;7.53;;;4.90;;
11998;SDS011;40817;51.520;9.954;2024-02-26T14:33:01;7.35;;;4.20;;
11998;SDS011;40817;51.520;9.954;2024-02-26T14:43:28;7.53;;;4.18;;
11998;SDS011;40817;51.520;9.954;2024-02-26T14:45:57;8.38;;;4.40;;
11998;SDS011;40817;51.520;9.954;2024-02-26T14:48:26;6.68;;;3.97;;
11998;SDS011;40817;51.520;9.954;2024-02-26T14:50:54;8.73;;;4.78;;
11998;SDS011;40817;51.520;9.954;2024-02-26T14:53:21;7.20;;;4.40;;
11998;SDS011;40817;51.520;9.954;2024-02-26T14:55:49;7.78;;;4.55;;
11998;SDS011;40817;51.520;9.954;2024-02-26T14:58:16;16.13;;;5.22;;
11998;SDS011;40817;51.520;9.954;2024-02-26T15:00:44;6.25;;;4.45;;
11998;SDS011;40817;51.520;9.954;2024-02-26T15:03:11;8.38;;;4.22;;
11998;SDS011;40817;51.520;9.954;2024-02-26T15:05:40;8.65;;;4.75;;